Terminal Aerodrome Forecast
Issued by NWS

Home | Current Version | Previous Version | Graphics & Text | Print | Product List | Glossary On
Versions: 1 2 3 4 5 6 7 8 9 10 11 12 13 14 15 16 17 18 19 20 21 22 23 24 25 26 27
247
FTUS43 KABR 111732
TAFPIR
TAF
KPIR 111732Z 1118/1218 14008KT P6SM BKN009 OVC035
      TEMPO 1118/1120 3SM -SN OVC009
     FM120300 36005KT 6SM BR OVC011
     FM121200 03010KT 6SM BR OVC015=

USA.gov is the U.S. government's official web portal to all federal, state and local government web resources and services.